sensor_id;sensor_type;location;lat;lon;timestamp;pressure;altitude;pressure_sealevel;temperature;humidity
30636;BME280;17400;52.392;9.750;2023-02-21T00:01:29;100970.38;;;8.78;100.00
30636;BME280;17400;52.392;9.750;2023-02-21T00:04:14;100972.41;;;8.76;100.00
30636;BME280;17400;52.392;9.750;2023-02-21T00:06:59;100967.97;;;8.83;100.00
30636;BME280;17400;52.392;9.750;2023-02-21T00:09:44;100970.66;;;8.83;100.00
30636;BME280;17400;52.392;9.750;2023-02-21T00:12:30;100974.94;;;8.77;100.00
30636;BME280;17400;52.392;9.750;2023-02-21T00:15:16;100965.78;;;8.78;100.00
30636;BME280;17400;52.392;9.750;2023-02-21T00:18:02;100957.56;;;8.72;100.00
30636;BME280;17400;52.392;9.750;2023-02-21T00:20:47;100969.41;;;8.71;100.00
30636;BME280;17400;52.392;9.750;2023-02-21T00:23:33;100966.66;;;8.79;100.00
30636;BME280;17400;52.392;9.750;2023-02-21T00:26:19;100967.16;;;8.82;100.00
30636;BME280;17400;52.392;9.750;2023-02-21T00:29:06;100964.91;;;8.86;100.00
30636;BME280;17400;52.392;9.750;2023-02-21T00:31:53;100964.31;;;8.76;100.00
30636;BME280;17400;52.392;9.750;2023-02-21T00:34:38;100956.88;;;8.78;100.00
30636;BME280;17400;52.392;9.750;2023-02-21T00:37:23;100960.41;;;8.78;100.00
30636;BME280;17400;52.392;9.750;2023-02-21T00:40:10;100955.97;;;8.86;100.00
30636;BME280;17400;52.392;9.750;2023-02-21T00:42:56;100956.81;;;8.86;100.00
30636;BME280;17400;52.392;9.750;2023-02-21T00:45:41;100953.09;;;8.87;100.00
30636;BME280;17400;52.392;9.750;2023-02-21T00:48:28;100965.28;;;8.83;100.00
30636;BME280;17400;52.392;9.750;2023-02-21T00:51:14;100965.09;;;8.84;100.00
30636;BME280;17400;52.392;9.750;2023-02-21T00:54:01;100965.75;;;8.87;100.00
30636;BME280;17400;52.392;9.750;2023-02-21T00:56:46;100963.72;;;8.89;100.00
30636;BME280;17400;52.392;9.750;2023-02-21T00:59:31;100964.06;;;8.86;100.00
30636;BME280;17400;52.392;9.750;2023-02-21T01:02:16;100971.16;;;8.87;100.00
30636;BME280;17400;52.392;9.750;2023-02-21T01:05:04;100964.91;;;8.86;100.00
30636;BME280;17400;52.392;9.750;2023-02-21T01:07:50;100964.25;;;8.84;100.00
30636;BME280;17400;52.392;9.750;2023-02-21T01:10:35;100966.09;;;8.83;100.00
30636;BME280;17400;52.392;9.750;2023-02-21T01:13:20;100962.69;;;8.90;100.00
30636;BME280;17400;52.392;9.750;2023-02-21T01:16:06;100956.63;;;8.88;100.00
30636;BME280;17400;52.392;9.750;2023-02-21T01:18:51;100958.50;;;8.87;100.00
30636;BME280;17400;52.392;9.750;2023-02-21T01:21:38;100967.72;;;8.93;100.00
30636;BME280;17400;52.392;9.750;2023-02-21T01:24:23;100963.38;;;8.92;100.00
30636;BME280;17400;52.392;9.750;2023-02-21T01:27:08;100965.22;;;8.91;100.00
30636;BME280;17400;52.392;9.750;2023-02-21T01:29:53;100962.00;;;8.88;100.00
30636;BME280;17400;52.392;9.750;2023-02-21T01:32:38;100963.41;;;8.83;100.00
30636;BME280;17400;52.392;9.750;2023-02-21T01:35:24;100958.31;;;8.89;100.00
30636;BME280;17400;52.392;9.750;2023-02-21T01:38:11;100967.38;;;8.96;100.00
30636;BME280;17400;52.392;9.750;2023-02-21T01:40:56;100963.88;;;8.87;100.00
30636;BME280;17400;52.392;9.750;2023-02-21T01:43:56;100968.75;;;8.92;100.00
30636;BME280;17400;52.392;9.750;2023-02-21T01:46:41;100965.31;;;8.98;100.00
30636;BME280;17400;52.392;9.750;2023-02-21T01:49:27;100957.03;;;8.99;100.00
30636;BME280;17400;52.392;9.750;2023-02-21T01:52:13;100958.91;;;8.99;100.00
30636;BME280;17400;52.392;9.750;2023-02-21T01:54:59;100969.53;;;9.00;100.00
30636;BME280;17400;52.392;9.750;2023-02-21T01:57:45;100964.00;;;8.94;100.00
30636;BME280;17400;52.392;9.750;2023-02-21T02:00:31;100967.56;;;8.94;100.00
30636;BME280;17400;52.392;9.750;2023-02-21T02:03:19;100956.91;;;8.93;100.00
30636;BME280;17400;52.392;9.750;2023-02-21T02:06:06;100962.63;;;8.98;100.00
30636;BME280;17400;52.392;9.750;2023-02-21T02:08:52;100969.03;;;8.97;100.00
30636;BME280;17400;52.392;9.750;2023-02-21T02:11:53;100964.50;;;8.97;100.00
30636;BME280;17400;52.392;9.750;2023-02-21T02:14:54;100964.31;;;8.99;100.00
30636;BME280;17400;52.392;9.750;2023-02-21T02:17:38;100972.91;;;9.03;100.00
30636;BME280;17400;52.392;9.750;2023-02-21T02:20:32;100973.53;;;9.05;100.00
30636;BME280;17400;52.392;9.750;2023-02-21T02:23:20;100968.50;;;9.02;100.00
30636;BME280;17400;52.392;9.750;2023-02-21T02:26:11;100960.22;;;9.03;100.00
30636;BME280;17400;52.392;9.750;2023-02-21T02:29:08;100962.09;;;9.03;100.00
30636;BME280;17400;52.392;9.750;2023-02-21T02:31:54;100972.00;;;9.10;100.00
30636;BME280;17400;52.392;9.750;2023-02-21T02:34:49;100967.25;;;9.12;100.00
30636;BME280;17400;52.392;9.750;2023-02-21T02:37:22;100959.88;;;9.06;100.00
30636;BME280;17400;52.392;9.750;2023-02-21T02:39:57;100965.09;;;9.08;100.00
30636;BME280;17400;52.392;9.750;2023-02-21T02:42:35;100958.66;;;9.09;100.00
30636;BME280;17400;52.392;9.750;2023-02-21T02:45:10;100961.19;;;9.10;100.00
30636;BME280;17400;52.392;9.750;2023-02-21T02:47:42;100969.72;;;8.99;100.00
30636;BME280;17400;52.392;9.750;2023-02-21T02:50:12;100968.31;;;9.03;100.00
30636;BME280;17400;52.392;9.750;2023-02-21T02:52:49;100977.09;;;9.05;100.00
30636;BME280;17400;52.392;9.750;2023-02-21T02:55:29;100980.63;;;9.06;100.00
30636;BME280;17400;52.392;9.750;2023-02-21T02:57:59;100967.31;;;9.04;100.00
30636;BME280;17400;52.392;9.750;2023-02-21T03:00:29;100968.69;;;9.00;100.00
30636;BME280;17400;52.392;9.750;2023-02-21T03:03:10;100980.81;;;9.04;100.00
30636;BME280;17400;52.392;9.750;2023-02-21T03:05:50;100969.34;;;9.02;100.00
30636;BME280;17400;52.392;9.750;2023-02-21T03:08:26;100963.09;;;9.02;100.00
30636;BME280;17400;52.392;9.750;2023-02-21T03:11:04;100969.34;;;9.02;100.00
30636;BME280;17400;52.392;9.750;2023-02-21T03:13:41;100965.63;;;9.03;100.00
30636;BME280;17400;52.392;9.750;2023-02-21T03:16:13;100961.09;;;9.04;100.00
30636;BME280;17400;52.392;9.750;2023-02-21T03:18:47;100954.00;;;9.03;100.00
30636;BME280;17400;52.392;9.750;2023-02-21T03:21:19;100958.19;;;9.05;100.00
30636;BME280;17400;52.392;9.750;2023-02-21T03:23:50;100960.41;;;9.02;100.00
30636;BME280;17400;52.392;9.750;2023-02-21T03:26:19;100953.50;;;8.99;100.00
30636;BME280;17400;52.392;9.750;2023-02-21T03:28:48;100952.84;;;8.97;100.00
30636;BME280;17400;52.392;9.750;2023-02-21T03:31:21;100956.59;;;8.96;100.00
30636;BME280;17400;52.392;9.750;2023-02-21T03:33:50;100951.19;;;8.96;100.00
30636;BME280;17400;52.392;9.750;2023-02-21T03:36:20;100957.78;;;8.93;100.00
30636;BME280;17400;52.392;9.750;2023-02-21T03:38:48;100946.59;;;8.96;100.00
30636;BME280;17400;52.392;9.750;2023-02-21T03:41:15;100946.59;;;8.96;100.00
30636;BME280;17400;52.392;9.750;2023-02-21T03:43:43;100941.09;;;8.90;100.00
30636;BME280;17400;52.392;9.750;2023-02-21T03:46:10;100951.72;;;8.91;100.00
30636;BME280;17400;52.392;9.750;2023-02-21T03:48:38;100963.63;;;8.97;100.00
30636;BME280;17400;52.392;9.750;2023-02-21T03:51:06;100954.53;;;8.98;100.00
30636;BME280;17400;52.392;9.750;2023-02-21T03:53:35;100946.22;;;8.99;100.00
30636;BME280;17400;52.392;9.750;2023-02-21T03:56:03;100948.66;;;8.94;100.00
30636;BME280;17400;52.392;9.750;2023-02-21T03:58:31;100946.59;;;8.96;100.00
30636;BME280;17400;52.392;9.750;2023-02-21T04:00:59;100950.81;;;8.99;100.00
30636;BME280;17400;52.392;9.750;2023-02-21T04:03:26;100943.38;;;9.01;100.00
30636;BME280;17400;52.392;9.750;2023-02-21T04:05:54;100952.78;;;9.05;100.00
30636;BME280;17400;52.392;9.750;2023-02-21T04:08:22;100941.13;;;9.05;100.00
30636;BME280;17400;52.392;9.750;2023-02-21T04:10:51;100944.09;;;8.95;100.00
30636;BME280;17400;52.392;9.750;2023-02-21T04:13:19;100945.41;;;8.99;100.00
30636;BME280;17400;52.392;9.750;2023-02-21T04:15:49;100931.22;;;8.97;100.00
30636;BME280;17400;52.392;9.750;2023-02-21T04:18:16;100934.69;;;8.91;100.00
30636;BME280;17400;52.392;9.750;2023-02-21T04:20:44;100923.88;;;8.91;100.00
30636;BME280;17400;52.392;9.750;2023-02-21T04:23:15;100932.28;;;8.96;100.00
30636;BME280;17400;52.392;9.750;2023-02-21T04:25:43;100924.53;;;8.93;100.00
30636;BME280;17400;52.392;9.750;2023-02-21T04:28:12;100924.19;;;8.96;100.00
30636;BME280;17400;52.392;9.750;2023-02-21T04:30:40;100921.78;;;9.01;100.00
30636;BME280;17400;52.392;9.750;2023-02-21T04:33:08;100929.22;;;8.99;100.00
30636;BME280;17400;52.392;9.750;2023-02-21T04:35:35;100934.78;;;8.97;100.00
30636;BME280;17400;52.392;9.750;2023-02-21T04:38:03;100934.13;;;8.95;100.00
30636;BME280;17400;52.392;9.750;2023-02-21T04:40:30;100938.22;;;8.91;100.00
30636;BME280;17400;52.392;9.750;2023-02-21T04:42:58;100927.22;;;8.93;100.00
30636;BME280;17400;52.392;9.750;2023-02-21T04:45:27;100933.28;;;8.95;100.00
30636;BME280;17400;52.392;9.750;2023-02-21T04:47:56;100927.06;;;8.94;100.00
30636;BME280;17400;52.392;9.750;2023-02-21T04:50:23;100931.22;;;8.97;100.00
30636;BME280;17400;52.392;9.750;2023-02-21T04:52:51;100922.69;;;8.93;100.00
30636;BME280;17400;52.392;9.750;2023-02-21T04:55:19;100918.97;;;8.94;100.00
30636;BME280;17400;52.392;9.750;2023-02-21T04:57:47;100914.28;;;8.88;100.00
30636;BME280;17400;52.392;9.750;2023-02-21T05:00:15;100919.78;;;8.95;100.00
30636;BME280;17400;52.392;9.750;2023-02-21T05:02:44;100912.19;;;8.98;100.00
30636;BME280;17400;52.392;9.750;2023-02-21T05:05:12;100911.31;;;8.98;100.00
30636;BME280;17400;52.392;9.750;2023-02-21T05:07:41;100910.00;;;8.94;100.00
30636;BME280;17400;52.392;9.750;2023-02-21T05:10:09;100917.97;;;9.10;100.00
30636;BME280;17400;52.392;9.750;2023-02-21T05:12:39;100908.84;;;9.11;100.00
30636;BME280;17400;52.392;9.750;2023-02-21T05:15:09;100918.09;;;9.17;100.00
30636;BME280;17400;52.392;9.750;2023-02-21T05:17:37;100918.00;;;9.25;100.00
30636;BME280;17400;52.392;9.750;2023-02-21T05:20:06;100922.59;;;9.25;100.00
30636;BME280;17400;52.392;9.750;2023-02-21T05:22:37;100917.81;;;9.27;100.00
30636;BME280;17400;52.392;9.750;2023-02-21T05:25:06;100917.63;;;9.28;100.00
30636;BME280;17400;52.392;9.750;2023-02-21T05:27:34;100924.25;;;9.26;100.00
30636;BME280;17400;52.392;9.750;2023-02-21T05:30:02;100922.63;;;9.16;100.00
30636;BME280;17400;52.392;9.750;2023-02-21T05:32:29;100922.00;;;9.14;100.00
30636;BME280;17400;52.392;9.750;2023-02-21T05:34:57;100928.41;;;9.13;100.00
30636;BME280;17400;52.392;9.750;2023-02-21T05:37:26;100921.13;;;9.14;100.00
30636;BME280;17400;52.392;9.750;2023-02-21T05:39:56;100921.03;;;9.07;100.00
30636;BME280;17400;52.392;9.750;2023-02-21T05:42:25;100931.00;;;9.07;100.00
30636;BME280;17400;52.392;9.750;2023-02-21T05:44:53;100923.38;;;9.10;100.00
30636;BME280;17400;52.392;9.750;2023-02-21T05:47:21;100928.78;;;9.10;100.00
30636;BME280;17400;52.392;9.750;2023-02-21T05:49:48;100923.53;;;9.09;100.00
30636;BME280;17400;52.392;9.750;2023-02-21T05:52:16;100927.75;;;9.11;100.00
30636;BME280;17400;52.392;9.750;2023-02-21T05:54:45;100929.44;;;9.12;100.00
30636;BME280;17400;52.392;9.750;2023-02-21T05:57:13;100934.09;;;9.19;100.00
30636;BME280;17400;52.392;9.750;2023-02-21T05:59:41;100934.47;;;9.15;100.00
30636;BME280;17400;52.392;9.750;2023-02-21T06:02:09;100934.81;;;9.12;100.00
30636;BME280;17400;52.392;9.750;2023-02-21T06:04:36;100933.16;;;9.11;100.00
30636;BME280;17400;52.392;9.750;2023-02-21T06:07:04;100931.19;;;9.05;100.00
30636;BME280;17400;52.392;9.750;2023-02-21T06:09:32;100932.97;;;9.13;100.00
30636;BME280;17400;52.392;9.750;2023-02-21T06:12:01;100936.03;;;9.10;100.00
30636;BME280;17400;52.392;9.750;2023-02-21T06:14:29;100942.63;;;9.07;100.00
30636;BME280;17400;52.392;9.750;2023-02-21T06:16:57;100936.41;;;9.07;100.00
30636;BME280;17400;52.392;9.750;2023-02-21T06:19:24;100938.28;;;9.06;100.00
30636;BME280;17400;52.392;9.750;2023-02-21T06:21:52;100930.34;;;9.05;100.00
30636;BME280;17400;52.392;9.750;2023-02-21T06:24:20;100931.31;;;9.12;100.00
30636;BME280;17400;52.392;9.750;2023-02-21T06:26:47;100945.63;;;9.12;100.00
30636;BME280;17400;52.392;9.750;2023-02-21T06:29:16;100939.41;;;9.12;100.00
30636;BME280;17400;52.392;9.750;2023-02-21T06:31:44;100939.28;;;9.05;100.00
30636;BME280;17400;52.392;9.750;2023-02-21T06:34:12;100956.81;;;9.09;100.00
30636;BME280;17400;52.392;9.750;2023-02-21T06:36:42;100940.78;;;9.08;100.00
30636;BME280;17400;52.392;9.750;2023-02-21T06:39:11;100955.94;;;9.09;100.00
30636;BME280;17400;52.392;9.750;2023-02-21T06:41:38;100956.44;;;9.12;100.00
30636;BME280;17400;52.392;9.750;2023-02-21T06:44:06;100948.16;;;9.14;100.00
30636;BME280;17400;52.392;9.750;2023-02-21T06:46:35;100949.06;;;9.06;100.00
30636;BME280;17400;52.392;9.750;2023-02-21T06:49:04;100949.06;;;9.06;100.00
30636;BME280;17400;52.392;9.750;2023-02-21T06:51:33;100948.91;;;9.08;100.00
30636;BME280;17400;52.392;9.750;2023-02-21T06:54:01;100958.13;;;9.13;100.00
30636;BME280;17400;52.392;9.750;2023-02-21T06:56:29;100965.84;;;9.16;100.00
30636;BME280;17400;52.392;9.750;2023-02-21T06:58:57;100962.97;;;9.18;100.00
30636;BME280;17400;52.392;9.750;2023-02-21T07:01:25;100970.13;;;9.11;100.00
30636;BME280;17400;52.392;9.750;2023-02-21T07:03:57;100974.31;;;9.13;100.00
30636;BME280;17400;52.392;9.750;2023-02-21T07:06:24;100975.53;;;9.11;100.00
30636;BME280;17400;52.392;9.750;2023-02-21T07:08:55;100982.25;;;9.15;100.00
30636;BME280;17400;52.392;9.750;2023-02-21T07:11:23;100982.81;;;9.10;100.00
30636;BME280;17400;52.392;9.750;2023-02-21T07:13:50;100986.41;;;9.03;100.00
30636;BME280;17400;52.392;9.750;2023-02-21T07:16:18;100989.94;;;9.03;100.00
30636;BME280;17400;52.392;9.750;2023-02-21T07:18:46;101000.53;;;9.05;100.00
30636;BME280;17400;52.392;9.750;2023-02-21T07:21:16;101011.19;;;9.06;100.00
30636;BME280;17400;52.392;9.750;2023-02-21T07:23:46;101007.44;;;9.07;100.00
30636;BME280;17400;52.392;9.750;2023-02-21T07:26:14;101009.44;;;9.13;100.00
30636;BME280;17400;52.392;9.750;2023-02-21T07:28:42;101002.84;;;9.16;100.00
30636;BME280;17400;52.392;9.750;2023-02-21T07:31:11;101005.06;;;9.12;100.00
30636;BME280;17400;52.392;9.750;2023-02-21T07:33:40;101004.88;;;9.14;100.00
30636;BME280;17400;52.392;9.750;2023-02-21T07:36:08;101012.63;;;9.17;100.00
30636;BME280;17400;52.392;9.750;2023-02-21T07:38:37;101015.78;;;9.21;100.00
30636;BME280;17400;52.392;9.750;2023-02-21T07:41:05;101015.63;;;9.22;100.00
30636;BME280;17400;52.392;9.750;2023-02-21T07:43:32;101013.09;;;9.21;100.00
30636;BME280;17400;52.392;9.750;2023-02-21T07:46:00;101019.69;;;9.18;100.00
30636;BME280;17400;52.392;9.750;2023-02-21T07:48:28;101026.13;;;9.17;100.00
30636;BME280;17400;52.392;9.750;2023-02-21T07:50:56;101021.56;;;9.17;100.00
30636;BME280;17400;52.392;9.750;2023-02-21T07:53:23;101023.88;;;9.21;100.00
30636;BME280;17400;52.392;9.750;2023-02-21T07:55:52;101031.66;;;9.24;100.00
30636;BME280;17400;52.392;9.750;2023-02-21T07:58:21;101030.50;;;9.18;100.00
30636;BME280;17400;52.392;9.750;2023-02-21T08:00:49;101030.34;;;9.20;100.00
30636;BME280;17400;52.392;9.750;2023-02-21T08:03:19;101032.84;;;9.21;100.00
30636;BME280;17400;52.392;9.750;2023-02-21T08:05:46;101033.50;;;9.23;100.00
30636;BME280;17400;52.392;9.750;2023-02-21T08:08:14;101037.78;;;9.17;100.00
30636;BME280;17400;52.392;9.750;2023-02-21T08:10:42;101043.66;;;9.21;100.00
30636;BME280;17400;52.392;9.750;2023-02-21T08:13:12;101045.34;;;9.22;100.00
30636;BME280;17400;52.392;9.750;2023-02-21T08:15:40;101047.19;;;9.22;100.00
30636;BME280;17400;52.392;9.750;2023-02-21T08:18:14;101051.38;;;9.24;100.00
30636;BME280;17400;52.392;9.750;2023-02-21T08:20:44;101045.16;;;9.24;100.00
30636;BME280;17400;52.392;9.750;2023-02-21T08:23:11;101043.78;;;9.28;100.00
30636;BME280;17400;52.392;9.750;2023-02-21T08:25:39;101052.72;;;9.28;100.00
30636;BME280;17400;52.392;9.750;2023-02-21T08:28:07;101051.03;;;9.27;100.00
30636;BME280;17400;52.392;9.750;2023-02-21T08:30:36;101055.41;;;9.28;100.00
30636;BME280;17400;52.392;9.750;2023-02-21T08:33:06;101053.91;;;9.26;100.00
30636;BME280;17400;52.392;9.750;2023-02-21T08:35:34;101061.69;;;9.29;100.00
30636;BME280;17400;52.392;9.750;2023-02-21T08:38:02;101066.34;;;9.35;100.00
30636;BME280;17400;52.392;9.750;2023-02-21T08:40:31;101055.06;;;9.31;100.00
30636;BME280;17400;52.392;9.750;2023-02-21T08:43:00;101049.00;;;9.29;100.00
30636;BME280;17400;52.392;9.750;2023-02-21T08:45:28;101059.69;;;9.23;100.00
30636;BME280;17400;52.392;9.750;2023-02-21T08:47:58;101058.97;;;9.29;100.00
30636;BME280;17400;52.392;9.750;2023-02-21T08:50:27;101072.47;;;9.29;100.00
30636;BME280;17400;52.392;9.750;2023-02-21T08:52:55;101062.31;;;9.31;100.00
30636;BME280;17400;52.392;9.750;2023-02-21T08:55:23;101071.09;;;9.33;100.00
30636;BME280;17400;52.392;9.750;2023-02-21T08:57:52;101077.25;;;9.42;100.00
30636;BME280;17400;52.392;9.750;2023-02-21T09:00:22;101076.38;;;9.49;100.00
30636;BME280;17400;52.392;9.750;2023-02-21T09:02:54;101067.63;;;9.47;100.00
30636;BME280;17400;52.392;9.750;2023-02-21T09:05:25;101070.50;;;9.46;100.00
30636;BME280;17400;52.392;9.750;2023-02-21T09:07:56;101075.22;;;9.44;100.00
30636;BME280;17400;52.392;9.750;2023-02-21T09:10:26;101076.13;;;9.36;100.00
30636;BME280;17400;52.392;9.750;2023-02-21T09:12:54;101064.13;;;9.39;100.00
30636;BME280;17400;52.392;9.750;2023-02-21T09:15:22;101059.19;;;9.42;100.00
30636;BME280;17400;52.392;9.750;2023-02-21T09:17:50;101063.75;;;9.42;100.00
30636;BME280;17400;52.392;9.750;2023-02-21T09:20:21;101064.94;;;9.39;100.00
30636;BME280;17400;52.392;9.750;2023-02-21T09:22:51;101067.84;;;9.38;100.00
30636;BME280;17400;52.392;9.750;2023-02-21T09:25:21;101058.91;;;9.37;100.00
30636;BME280;17400;52.392;9.750;2023-02-21T09:27:50;101060.53;;;9.46;100.00
30636;BME280;17400;52.392;9.750;2023-02-21T09:30:21;101068.31;;;9.41;100.00
30636;BME280;17400;52.392;9.750;2023-02-21T09:32:51;101058.19;;;9.43;100.00
30636;BME280;17400;52.392;9.750;2023-02-21T09:35:21;101061.72;;;9.44;100.00
30636;BME280;17400;52.392;9.750;2023-02-21T09:37:48;101057.44;;;9.49;100.00
30636;BME280;17400;52.392;9.750;2023-02-21T09:40:28;101042.53;;;9.54;100.00
30636;BME280;17400;52.392;9.750;2023-02-21T09:43:01;101039.84;;;9.54;100.00
30636;BME280;17400;52.392;9.750;2023-02-21T09:45:32;101054.84;;;9.56;100.00
30636;BME280;17400;52.392;9.750;2023-02-21T09:48:04;101054.50;;;9.59;100.00
30636;BME280;17400;52.392;9.750;2023-02-21T09:50:39;101055.81;;;9.63;100.00
30636;BME280;17400;52.392;9.750;2023-02-21T09:53:07;101056.47;;;9.65;100.00
30636;BME280;17400;52.392;9.750;2023-02-21T09:55:40;101053.22;;;9.70;100.00
30636;BME280;17400;52.392;9.750;2023-02-21T09:58:10;101058.25;;;9.73;100.00
30636;BME280;17400;52.392;9.750;2023-02-21T10:00:39;101061.94;;;9.80;100.00
30636;BME280;17400;52.392;9.750;2023-02-21T10:03:23;101059.13;;;9.89;100.00
30636;BME280;17400;52.392;9.750;2023-02-21T10:05:57;101054.22;;;9.92;100.00
30636;BME280;17400;52.392;9.750;2023-02-21T10:08:37;101062.13;;;9.94;100.00
30636;BME280;17400;52.392;9.750;2023-02-21T10:11:22;101055.03;;;9.93;100.00
30636;BME280;17400;52.392;9.750;2023-02-21T10:13:55;101063.88;;;9.87;100.00
30636;BME280;17400;52.392;9.750;2023-02-21T10:16:33;101055.41;;;9.90;100.00
30636;BME280;17400;52.392;9.750;2023-02-21T10:19:08;101066.34;;;9.96;100.00
30636;BME280;17400;52.392;9.750;2023-02-21T10:21:40;101061.38;;;10.00;100.00
30636;BME280;17400;52.392;9.750;2023-02-21T10:24:13;101054.22;;;9.92;100.00
30636;BME280;17400;52.392;9.750;2023-02-21T10:26:47;101063.16;;;9.93;100.00
30636;BME280;17400;52.392;9.750;2023-02-21T10:29:21;101057.53;;;9.94;100.00
30636;BME280;17400;52.392;9.750;2023-02-21T10:31:54;101054.66;;;9.96;100.00
30636;BME280;17400;52.392;9.750;2023-02-21T10:34:25;101052.25;;;10.01;100.00
30636;BME280;17400;52.392;9.750;2023-02-21T10:36:54;101054.22;;;10.07;100.00
30636;BME280;17400;52.392;9.750;2023-02-21T10:39:30;101065.31;;;10.12;100.00
30636;BME280;17400;52.392;9.750;2023-02-21T10:42:02;101053.84;;;10.10;100.00
30636;BME280;17400;52.392;9.750;2023-02-21T10:44:33;101068.75;;;10.06;100.00
30636;BME280;17400;52.392;9.750;2023-02-21T10:47:07;101071.47;;;10.06;100.00
30636;BME280;17400;52.392;9.750;2023-02-21T10:49:45;101078.00;;;10.12;100.00
30636;BME280;17400;52.392;9.750;2023-02-21T10:52:16;101070.63;;;10.06;100.00
30636;BME280;17400;52.392;9.750;2023-02-21T10:55:00;101080.59;;;10.05;100.00
30636;BME280;17400;52.392;9.750;2023-02-21T10:57:38;101075.75;;;10.00;100.00
30636;BME280;17400;52.392;9.750;2023-02-21T11:00:08;101077.25;;;10.03;100.00
30636;BME280;17400;52.392;9.750;2023-02-21T11:02:39;101077.25;;;10.03;100.00
30636;BME280;17400;52.392;9.750;2023-02-21T11:05:11;101079.88;;;10.11;100.00
30636;BME280;17400;52.392;9.750;2023-02-21T11:07:40;101086.00;;;10.05;100.00
30636;BME280;17400;52.392;9.750;2023-02-21T11:10:27;101085.44;;;9.95;100.00
30636;BME280;17400;52.392;9.750;2023-02-21T11:13:13;101082.19;;;9.99;100.00
30636;BME280;17400;52.392;9.750;2023-02-21T11:15:42;101092.16;;;9.99;100.00
30636;BME280;17400;52.392;9.750;2023-02-21T11:18:16;101092.72;;;9.94;100.00
30636;BME280;17400;52.392;9.750;2023-02-21T11:20:44;101086.66;;;9.92;100.00
30636;BME280;17400;52.392;9.750;2023-02-21T11:23:22;101091.88;;;9.94;100.00
30636;BME280;17400;52.392;9.750;2023-02-21T11:25:56;101088.16;;;9.95;100.00
30636;BME280;17400;52.392;9.750;2023-02-21T11:28:27;101083.56;;;9.95;100.00
30636;BME280;17400;52.392;9.750;2023-02-21T11:31:10;101098.41;;;9.99;100.00
30636;BME280;17400;52.392;9.750;2023-02-21T11:33:41;101089.38;;;9.92;100.00
30636;BME280;17400;52.392;9.750;2023-02-21T11:36:13;101092.31;;;9.97;100.00
30636;BME280;17400;52.392;9.750;2023-02-21T11:38:42;101083.28;;;10.05;100.00
30636;BME280;17400;52.392;9.750;2023-02-21T11:41:16;101086.19;;;10.18;100.00
30636;BME280;17400;52.392;9.750;2023-02-21T11:43:49;101086.31;;;10.25;100.00
30636;BME280;17400;52.392;9.750;2023-02-21T11:46:23;101081.38;;;10.29;100.00
30636;BME280;17400;52.392;9.750;2023-02-21T11:49:00;101077.94;;;10.35;100.00
30636;BME280;17400;52.392;9.750;2023-02-21T11:51:33;101069.53;;;10.45;100.00
30636;BME280;17400;52.392;9.750;2023-02-21T11:54:04;101073.00;;;10.54;100.00
30636;BME280;17400;52.392;9.750;2023-02-21T11:56:41;101067.97;;;10.50;100.00
30636;BME280;17400;52.392;9.750;2023-02-21T11:59:24;101064.03;;;10.53;100.00
30636;BME280;17400;52.392;9.750;2023-02-21T12:02:14;101060.22;;;10.62;100.00
30636;BME280;17400;52.392;9.750;2023-02-21T12:04:56;101053.53;;;10.80;100.00
30636;BME280;17400;52.392;9.750;2023-02-21T12:07:33;101069.97;;;10.78;100.00
30636;BME280;17400;52.392;9.750;2023-02-21T12:10:10;101067.28;;;10.78;100.00
30636;BME280;17400;52.392;9.750;2023-02-21T12:12:52;101063.63;;;10.71;100.00
30636;BME280;17400;52.392;9.750;2023-02-21T12:15:25;101066.59;;;10.76;100.00
30636;BME280;17400;52.392;9.750;2023-02-21T12:18:06;101055.94;;;10.90;100.00
30636;BME280;17400;52.392;9.750;2023-02-21T12:20:53;101062.22;;;10.90;100.00
30636;BME280;17400;52.392;9.750;2023-02-21T12:23:35;101063.31;;;10.96;100.00
30636;BME280;17400;52.392;9.750;2023-02-21T12:26:20;101057.75;;;11.04;100.00
30636;BME280;17400;52.392;9.750;2023-02-21T12:29:00;101049.38;;;10.99;100.00
30636;BME280;17400;52.392;9.750;2023-02-21T12:31:42;101058.63;;;11.05;100.00
30636;BME280;17400;52.392;9.750;2023-02-21T12:34:25;101049.63;;;11.26;100.00
30636;BME280;17400;52.392;9.750;2023-02-21T12:37:07;101049.25;;;11.50;100.00
30636;BME280;17400;52.392;9.750;2023-02-21T12:39:53;101048.59;;;11.70;100.00
30636;BME280;17400;52.392;9.750;2023-02-21T12:42:39;101046.91;;;11.69;100.00
30636;BME280;17400;52.392;9.750;2023-02-21T12:45:21;101041.88;;;11.66;100.00
30636;BME280;17400;52.392;9.750;2023-02-21T12:47:57;101040.84;;;11.67;100.00
30636;BME280;17400;52.392;9.750;2023-02-21T12:50:30;101036.56;;;11.51;100.00
30636;BME280;17400;52.392;9.750;2023-02-21T12:53:02;101041.25;;;11.42;100.00
30636;BME280;17400;52.392;9.750;2023-02-21T12:55:35;101042.53;;;11.46;100.00
30636;BME280;17400;52.392;9.750;2023-02-21T12:58:12;101038.16;;;11.45;100.00
30636;BME280;17400;52.392;9.750;2023-02-21T13:00:45;101037.72;;;11.42;100.00
30636;BME280;17400;52.392;9.750;2023-02-21T13:03:31;101034.22;;;11.26;100.00
30636;BME280;17400;52.392;9.750;2023-02-21T13:06:08;101035.31;;;11.10;100.00
30636;BME280;17400;52.392;9.750;2023-02-21T13:08:45;101029.50;;;11.13;100.00
30636;BME280;17400;52.392;9.750;2023-02-21T13:11:21;101035.19;;;11.19;100.00
30636;BME280;17400;52.392;9.750;2023-02-21T13:13:51;101046.50;;;11.22;100.00
30636;BME280;17400;52.392;9.750;2023-02-21T13:16:19;101037.13;;;11.25;100.00
30636;BME280;17400;52.392;9.750;2023-02-21T13:18:51;101045.13;;;11.33;100.00
30636;BME280;17400;52.392;9.750;2023-02-21T13:21:35;101031.13;;;11.29;100.00
30636;BME280;17400;52.392;9.750;2023-02-21T13:24:13;101040.69;;;11.25;100.00